createdAt,value
2022-08-17T00:00:03.785Z,98199.47
2022-08-17T00:03:13.489Z,98207.31
2022-08-17T00:05:49.700Z,98209.22
2022-08-17T00:08:17.936Z,98212.06
2022-08-17T00:10:45.251Z,98203.63
2022-08-17T00:13:15.128Z,98208.31
2022-08-17T00:15:41.980Z,98206.69
2022-08-17T00:18:58.346Z,98203.31
2022-08-17T00:20:56.719Z,98197.03
2022-08-17T00:23:24.284Z,98204.03
2022-08-17T00:25:51.499Z,98204.03
2022-08-17T00:28:18.478Z,98209.19
2022-08-17T00:30:53.196Z,98210.44
2022-08-17T00:33:26.446Z,98210.72
2022-08-17T00:35:54.402Z,98209.91
2022-08-17T00:38:22.032Z,98205.47
2022-08-17T00:40:51.823Z,98208.13
2022-08-17T00:43:33.733Z,98202.78
2022-08-17T00:46:02.397Z,98203.22
2022-08-17T00:48:30.753Z,98194.34
2022-08-17T00:51:39.030Z,98201.31
2022-08-17T00:54:13.417Z,98198.38
2022-08-17T00:56:42.861Z,98200.59
2022-08-17T00:59:10.196Z,98200.81
2022-08-17T01:01:37.181Z,98199.28
2022-08-17T01:04:05.351Z,98200.38
2022-08-17T01:06:32.493Z,98200.22
2022-08-17T01:08:59.782Z,98201.66
2022-08-17T01:11:28.050Z,98198.13
2022-08-17T01:13:55.182Z,98197.94
2022-08-17T01:16:28.405Z,98201.34
2022-08-17T01:18:59.705Z,98203.72
2022-08-17T01:21:36.091Z,98209.88
2022-08-17T01:24:03.163Z,98207.31
2022-08-17T01:26:30.336Z,98212.03
2022-08-17T01:28:57.202Z,98219.47
2022-08-17T01:31:25.628Z,98219.50
2022-08-17T01:33:52.985Z,98218.88
2022-08-17T01:36:19.954Z,98216.97
2022-08-17T01:38:46.912Z,98208.56
2022-08-17T01:41:14.797Z,98206.25
2022-08-17T01:43:46.289Z,98219.56
2022-08-17T01:46:21.886Z,98216.41
2022-08-17T01:48:51.228Z,98220.84
2022-08-17T01:51:18.265Z,98222.56
2022-08-17T01:53:48.931Z,98217.25
2022-08-17T01:56:18.345Z,98224.72
2022-08-17T01:58:45.706Z,98222.81
2022-08-17T02:01:14.853Z,98224.75
2022-08-17T02:03:42.160Z,98221.59
2022-08-17T02:06:27.553Z,98223.06
2022-08-17T02:09:03.168Z,98228.16
2022-08-17T02:11:32.285Z,98224.78
2022-08-17T02:14:03.267Z,98222.66
2022-08-17T02:16:37.916Z,98215.06
2022-08-17T02:19:06.949Z,98214.44
2022-08-17T02:21:34.323Z,98214.25
2022-08-17T02:24:01.167Z,98212.13
2022-08-17T02:26:28.271Z,98212.13
2022-08-17T02:28:55.588Z,98209.19
2022-08-17T02:31:22.491Z,98210.91
2022-08-17T02:34:00.341Z,98212.38
2022-08-17T02:36:35.018Z,98208.16
2022-08-17T02:39:06.867Z,98208.41
2022-08-17T02:41:33.921Z,98205.44
2022-08-17T02:44:01.203Z,98204.16
2022-08-17T02:46:28.605Z,98207.53
2022-08-17T02:48:55.807Z,98209.63
2022-08-17T02:51:22.668Z,98206.91
2022-08-17T02:53:49.750Z,98199.94
2022-08-17T02:56:16.769Z,98210.06
2022-08-17T02:58:43.717Z,98199.72
2022-08-17T03:01:10.873Z,98210.06
2022-08-17T03:03:37.900Z,98199.09
2022-08-17T03:06:05.210Z,98209.66
2022-08-17T03:08:32.348Z,98209.25
2022-08-17T03:10:59.628Z,98212.63
2022-08-17T03:13:27.302Z,98212.00
2022-08-17T03:15:54.544Z,98219.41
2022-08-17T03:18:25.027Z,98217.72
2022-08-17T03:20:57.630Z,98231.03
2022-08-17T03:23:25.530Z,98234.41
2022-08-17T03:25:52.808Z,98236.34
2022-08-17T03:28:20.546Z,98238.66
2022-08-17T03:30:47.988Z,98240.59
2022-08-17T03:33:14.953Z,98250.72
2022-08-17T03:35:41.897Z,98249.88
2022-08-17T03:38:10.177Z,98240.59
2022-08-17T03:40:56.464Z,98248.16
2022-08-17T03:43:24.302Z,98244.16
2022-08-17T03:46:11.082Z,98250.72
2022-08-17T03:49:15.348Z,98244.38
2022-08-17T03:52:00.798Z,98246.50
2022-08-17T03:54:46.382Z,98244.38
2022-08-17T03:57:13.629Z,98244.38
2022-08-17T03:59:41.015Z,98244.59
2022-08-17T04:02:10.029Z,98249.03
2022-08-17T04:04:37.170Z,98254.09
2022-08-17T04:07:04.593Z,98259.81
2022-08-17T04:09:31.538Z,98258.28
2022-08-17T04:12:01.298Z,98263.13
2022-08-17T04:14:50.813Z,98264.81
2022-08-17T04:17:25.159Z,98259.97
2022-08-17T04:19:52.498Z,98261.44
2022-08-17T04:22:30.131Z,98264.19
2022-08-17T04:25:14.760Z,98258.06
2022-08-17T04:27:41.627Z,98264.38
2022-08-17T04:30:09.328Z,98262.50
2022-08-17T04:33:03.401Z,98269.47
2022-08-17T04:35:36.536Z,98274.31
2022-08-17T04:38:03.709Z,98273.50
2022-08-17T04:40:49.158Z,98286.59
2022-08-17T04:43:22.647Z,98287.91
2022-08-17T04:45:57.590Z,98301.19
2022-08-17T04:48:36.889Z,98290.03
2022-08-17T04:51:15.965Z,98290.41
2022-08-17T04:53:44.489Z,98291.91
2022-08-17T04:56:16.754Z,98293.63
2022-08-17T04:58:45.193Z,98295.94
2022-08-17T05:01:12.420Z,98300.38
2022-08-17T05:03:39.391Z,98304.19
2022-08-17T05:06:06.774Z,98311.59
2022-08-17T05:08:33.747Z,98313.72
2022-08-17T05:11:00.656Z,98312.47
2022-08-17T05:13:29.809Z,98315.00
2022-08-17T05:16:01.024Z,98314.34
2022-08-17T05:18:28.657Z,98316.25
2022-08-17T05:20:56.129Z,98309.09
2022-08-17T05:23:24.073Z,98309.91
2022-08-17T05:25:52.387Z,98307.81
2022-08-17T05:28:24.099Z,98309.28
2022-08-17T05:30:56.213Z,98309.72
2022-08-17T05:33:25.316Z,98305.47
2022-08-17T05:35:56.242Z,98306.09
2022-08-17T05:38:24.355Z,98318.38
2022-08-17T05:40:51.416Z,98310.56
2022-08-17T05:43:20.493Z,98316.28
2022-08-17T05:46:06.348Z,98307.41
2022-08-17T05:48:43.940Z,98312.88
2022-08-17T05:51:39.105Z,98309.28
2022-08-17T05:54:17.836Z,98306.53
2022-08-17T05:57:11.109Z,98309.94
2022-08-17T05:59:42.654Z,98313.94
2022-08-17T06:02:19.292Z,98315.00
2022-08-17T06:05:06.251Z,98329.59
2022-08-17T06:08:00.387Z,98319.41
2022-08-17T06:10:34.831Z,98311.13
2022-08-17T06:13:43.728Z,98314.50
2022-08-17T06:16:33.891Z,98308.13
2022-08-17T06:19:32.890Z,98308.09
2022-08-17T06:21:59.764Z,98305.16
2022-08-17T06:24:40.548Z,98294.94
2022-08-17T06:27:30.389Z,98298.75
2022-08-17T06:30:02.884Z,98305.28
2022-08-17T06:32:29.813Z,98301.44
2022-08-17T06:34:57.532Z,98296.09
2022-08-17T06:37:59.479Z,98298.56
2022-08-17T06:40:45.627Z,98303.84
2022-08-17T06:43:24.526Z,98304.44
2022-08-17T06:45:56.972Z,98306.06
2022-08-17T06:48:43.808Z,98306.88
2022-08-17T06:51:22.273Z,98315.75
2022-08-17T06:53:53.867Z,98305.53
2022-08-17T06:56:52.920Z,98311.81
2022-08-17T06:59:19.405Z,98308.34
2022-08-17T07:01:46.986Z,98307.84
2022-08-17T07:04:18.350Z,98303.72
2022-08-17T07:06:48.537Z,98315.97
2022-08-17T07:09:50.952Z,98321.19
2022-08-17T07:12:22.203Z,98318.97
2022-08-17T07:14:58.948Z,98315.09
2022-08-17T07:17:57.734Z,98322.59
2022-08-17T07:20:20.650Z,98323.78
2022-08-17T07:23:00.619Z,98322.59
2022-08-17T07:25:28.647Z,98319.72
2022-08-17T07:27:59.762Z,98321.72
2022-08-17T07:30:31.712Z,98315.41
2022-08-17T07:33:13.896Z,98315.47
2022-08-17T07:35:43.791Z,98315.75
2022-08-17T07:38:28.443Z,98317.28
2022-08-17T07:41:01.245Z,98327.53
2022-08-17T07:43:29.464Z,98318.66
2022-08-17T07:46:41.150Z,98324.81
2022-08-17T07:49:11.220Z,98326.78
2022-08-17T07:51:55.530Z,98322.38
2022-08-17T07:54:49.865Z,98325.16
2022-08-17T07:57:20.221Z,98322.41
2022-08-17T08:00:03.053Z,98325.88
2022-08-17T08:02:38.838Z,98328.41
2022-08-17T08:05:46.681Z,98334.66
2022-08-17T08:08:21.513Z,98329.13
2022-08-17T08:10:58.429Z,98337.44
2022-08-17T08:13:28.041Z,98336.47
2022-08-17T08:15:57.022Z,98331.03
2022-08-17T08:18:53.387Z,98337.88
2022-08-17T08:21:33.247Z,98338.94
2022-08-17T08:24:21.026Z,98333.59
2022-08-17T08:26:48.169Z,98325.75
2022-08-17T08:29:40.616Z,98330.66
2022-08-17T08:32:27.027Z,98334.16
2022-08-17T08:35:10.424Z,98334.81
2022-08-17T08:37:58.148Z,98334.75
2022-08-17T08:40:28.087Z,98335.78
2022-08-17T08:43:11.661Z,98341.81
2022-08-17T08:46:04.830Z,98341.38
2022-08-17T08:48:53.123Z,98334.09
2022-08-17T08:51:41.764Z,98338.47
2022-08-17T08:54:43.129Z,98343.56
2022-08-17T08:57:34.076Z,98336.50
2022-08-17T09:00:15.694Z,98341.16
2022-08-17T09:02:58.535Z,98346.03
2022-08-17T09:06:04.251Z,98345.00
2022-08-17T09:09:13.153Z,98346.91
2022-08-17T09:12:03.566Z,98338.13
2022-08-17T09:14:44.888Z,98337.22
2022-08-17T09:18:08.640Z,98342.06
2022-08-17T09:20:51.569Z,98344.16
2022-08-17T09:23:39.534Z,98340.88
2022-08-17T09:26:10.728Z,98337.13
2022-08-17T09:28:39.241Z,98337.56
2022-08-17T09:31:12.098Z,98338.16
2022-08-17T09:33:42.539Z,98333.81
2022-08-17T09:36:13.575Z,98338.31
2022-08-17T09:38:49.698Z,98335.59
2022-08-17T09:41:28.690Z,98337.03
2022-08-17T09:44:08.568Z,98333.22
2022-08-17T09:47:10.413Z,98342.44
2022-08-17T09:49:51.770Z,98339.13
2022-08-17T09:52:25.906Z,98325.25
2022-08-17T09:54:54.480Z,98321.97
2022-08-17T09:57:59.058Z,98328.00
2022-08-17T10:00:29.412Z,98321.59
2022-08-17T10:03:26.100Z,98318.59
2022-08-17T10:06:06.594Z,98325.34
2022-08-17T10:08:40.156Z,98326.50
2022-08-17T10:11:51.343Z,98325.75
2022-08-17T10:14:37.873Z,98331.41
2022-08-17T10:17:17.744Z,98327.28
2022-08-17T10:20:10.024Z,98328.16
2022-08-17T10:23:03.725Z,98335.72
2022-08-17T10:26:08.922Z,98323.75
2022-08-17T10:28:40.748Z,98325.53
2022-08-17T10:34:20.064Z,98326.41
2022-08-17T10:37:07.357Z,98315.31
2022-08-17T10:39:57.515Z,98319.53
2022-08-17T10:42:32.912Z,98317.63
2022-08-17T10:45:06.013Z,98315.69
2022-08-17T10:48:07.459Z,98314.81
2022-08-17T10:50:57.723Z,98308.44
2022-08-17T10:53:33.795Z,98312.34
2022-08-17T10:56:17.480Z,98315.97
2022-08-17T10:58:55.269Z,98320.97
2022-08-17T11:01:51.639Z,98318.19
2022-08-17T11:04:18.725Z,98318.47
2022-08-17T11:06:52.078Z,98317.03
2022-08-17T11:10:03.774Z,98314.50
2022-08-17T11:12:54.361Z,98330.72
2022-08-17T11:16:06.230Z,98326.53
2022-08-17T11:19:10.789Z,98331.53
2022-08-17T11:22:00.445Z,98328.16
2022-08-17T11:24:33.633Z,98318.91
2022-08-17T11:27:07.737Z,98322.22
2022-08-17T11:30:02.223Z,98324.19
2022-08-17T11:32:47.553Z,98317.13
2022-08-17T11:35:26.829Z,98317.06
2022-08-17T11:38:16.311Z,98317.53
2022-08-17T11:41:08.890Z,98317.81
2022-08-17T11:43:57.866Z,98312.72
2022-08-17T11:47:11.026Z,98314.34
2022-08-17T11:50:15.870Z,98304.81
2022-08-17T11:52:46.878Z,98309.16
2022-08-17T11:55:44.745Z,98306.31
2022-08-17T11:58:30.460Z,98297.81
2022-08-17T12:01:01.870Z,98300.38
2022-08-17T12:03:32.440Z,98298.00
2022-08-17T12:06:08.536Z,98294.31
2022-08-17T12:08:35.799Z,98285.28
2022-08-17T12:11:58.598Z,98289.19
2022-08-17T12:14:45.090Z,98298.72
2022-08-17T12:17:14.226Z,98290.28
2022-08-17T12:19:53.677Z,98290.19
2022-08-17T12:22:33.404Z,98294.09
2022-08-17T12:25:11.879Z,98296.28
2022-08-17T12:28:04.424Z,98286.94
2022-08-17T12:30:32.111Z,98293.84
2022-08-17T12:32:59.041Z,98293.53
2022-08-17T12:35:29.957Z,98276.66
2022-08-17T12:37:58.147Z,98285.88
2022-08-17T12:40:29.595Z,98285.56
2022-08-17T12:43:01.532Z,98280.13
2022-08-17T12:45:30.775Z,98280.09
2022-08-17T12:48:08.511Z,98282.00
2022-08-17T12:50:37.265Z,98280.53
2022-08-17T12:53:04.444Z,98276.84
2022-08-17T12:55:36.435Z,98277.88
2022-08-17T12:58:03.749Z,98274.25
2022-08-17T13:00:34.539Z,98265.25
2022-08-17T13:03:19.351Z,98273.06
2022-08-17T13:05:52.543Z,98267.97
2022-08-17T13:08:35.641Z,98271.53
2022-08-17T13:11:18.766Z,98271.53
2022-08-17T13:13:54.328Z,98263.66
2022-08-17T13:16:23.964Z,98272.84
2022-08-17T13:18:54.965Z,98270.56
2022-08-17T13:21:27.176Z,98265.47
2022-08-17T13:24:04.217Z,98272.19
2022-08-17T13:26:35.590Z,98267.09
2022-08-17T13:29:07.768Z,98278.56
2022-08-17T13:31:52.066Z,98267.53
2022-08-17T13:34:29.269Z,98265.06
2022-08-17T13:37:34.670Z,98268.41
2022-08-17T13:40:10.811Z,98274.22
2022-08-17T13:42:52.141Z,98273.06
2022-08-17T13:45:36.743Z,98269.75
2022-08-17T13:48:11.929Z,98261.53
2022-08-17T13:50:54.670Z,98266.41
2022-08-17T13:53:31.277Z,98258.13
2022-08-17T13:56:05.708Z,98263.44
2022-08-17T13:58:37.303Z,98269.56
2022-08-17T14:01:31.040Z,98272.38
2022-08-17T14:03:58.740Z,98267.53
2022-08-17T14:06:52.612Z,98272.84
2022-08-17T14:09:14.020Z,98266.06
2022-08-17T14:11:41.518Z,98264.84
2022-08-17T14:14:08.465Z,98268.19
2022-08-17T14:16:35.598Z,98262.25
2022-08-17T14:19:02.500Z,98260.00
2022-08-17T14:21:29.349Z,98268.72
2022-08-17T14:23:56.596Z,98273.19
2022-08-17T14:26:23.830Z,98269.28
2022-08-17T14:28:56.644Z,98274.31
2022-08-17T14:31:24.238Z,98264.50
2022-08-17T14:33:52.136Z,98267.31
2022-08-17T14:36:19.100Z,98263.38
2022-08-17T14:38:46.284Z,98257.75
2022-08-17T14:41:13.243Z,98259.41
2022-08-17T14:43:40.205Z,98257.44
2022-08-17T14:46:07.492Z,98257.09
2022-08-17T14:48:38.359Z,98265.03
2022-08-17T14:51:05.420Z,98256.28
2022-08-17T14:53:32.804Z,98257.75
2022-08-17T14:56:01.606Z,98261.38
2022-08-17T14:58:29.665Z,98254.38
2022-08-17T15:00:57.355Z,98246.22
2022-08-17T15:03:24.364Z,98251.84
2022-08-17T15:05:51.253Z,98259.75
2022-08-17T15:08:19.607Z,98257.81
2022-08-17T15:10:46.593Z,98257.59
2022-08-17T15:13:21.585Z,98259.44
2022-08-17T15:15:48.976Z,98256.56
2022-08-17T15:18:16.132Z,98257.38
2022-08-17T15:20:44.396Z,98261.63
2022-08-17T15:23:19.940Z,98264.22
2022-08-17T15:25:47.548Z,98256.69
2022-08-17T15:28:15.456Z,98253.66
2022-08-17T15:30:44.876Z,98259.28
2022-08-17T15:33:16.430Z,98260.44
2022-08-17T15:35:43.906Z,98270.25
2022-08-17T15:38:12.286Z,98273.34
2022-08-17T15:40:44.251Z,98262.72
2022-08-17T15:43:20.124Z,98263.03
2022-08-17T15:46:00.967Z,98261.47
2022-08-17T15:48:41.326Z,98261.22
2022-08-17T15:51:15.918Z,98262.34
2022-08-17T15:53:44.652Z,98263.47
2022-08-17T15:56:13.320Z,98267.75
2022-08-17T15:58:41.950Z,98265.25
2022-08-17T16:01:14.996Z,98260.53
2022-08-17T16:04:04.358Z,98261.69
2022-08-17T16:06:34.586Z,98250.19
2022-08-17T16:09:01.570Z,98253.34
2022-08-17T16:11:28.443Z,98251.44
2022-08-17T16:13:56.197Z,98255.66
2022-08-17T16:16:23.774Z,98248.38
2022-08-17T16:18:56.327Z,98251.41
2022-08-17T16:21:26.128Z,98255.31
2022-08-17T16:24:01.197Z,98255.31
2022-08-17T16:26:29.290Z,98255.59
2022-08-17T16:28:57.018Z,98257.88
2022-08-17T16:31:23.942Z,98260.13
2022-08-17T16:34:16.100Z,98264.38
2022-08-17T16:36:38.260Z,98263.00
2022-08-17T16:39:05.554Z,98264.72
2022-08-17T16:41:45.140Z,98268.97
2022-08-17T16:44:15.886Z,98253.56
2022-08-17T16:46:45.762Z,98267.38
2022-08-17T16:49:35.079Z,98269.94
2022-08-17T16:52:01.741Z,98267.16
2022-08-17T16:54:28.902Z,98264.94
2022-08-17T16:56:55.840Z,98265.84
2022-08-17T16:59:38.723Z,98273.72
2022-08-17T17:02:11.019Z,98270.97
2022-08-17T17:04:42.145Z,98271.53
2022-08-17T17:07:25.746Z,98271.59
2022-08-17T17:09:55.455Z,98272.47
2022-08-17T17:12:38.161Z,98277.00
2022-08-17T17:15:09.769Z,98278.72
2022-08-17T17:17:37.729Z,98279.59
2022-08-17T17:20:13.704Z,98277.66
2022-08-17T17:22:54.129Z,98288.63
2022-08-17T17:25:27.971Z,98283.06
2022-08-17T17:28:15.455Z,98293.19
2022-08-17T17:31:03.295Z,98295.16
2022-08-17T17:33:50.952Z,98285.69
2022-08-17T17:36:40.400Z,98291.34
2022-08-17T17:39:32.784Z,98288.03
2022-08-17T17:42:00.183Z,98288.09
2022-08-17T17:44:33.221Z,98285.31
2022-08-17T17:47:01.548Z,98280.59
2022-08-17T17:49:39.813Z,98285.31
2022-08-17T17:52:36.206Z,98289.03
2022-08-17T17:55:24.606Z,98299.41
2022-08-17T17:58:07.089Z,98298.88
2022-08-17T18:01:25.795Z,98304.81
2022-08-17T18:04:26.810Z,98297.00
2022-08-17T18:07:12.325Z,98294.53
2022-08-17T18:10:01.498Z,98292.81
2022-08-17T18:12:51.569Z,98293.13
2022-08-17T18:15:35.581Z,98293.44
2022-08-17T18:18:25.373Z,98293.75
2022-08-17T18:20:56.054Z,98303.03
2022-08-17T18:23:28.118Z,98300.53
2022-08-17T18:25:55.579Z,98301.94
2022-08-17T18:28:26.744Z,98310.63
2022-08-17T18:31:14.632Z,98317.59
2022-08-17T18:33:43.453Z,98313.97
2022-08-17T18:36:11.552Z,98317.06
2022-08-17T18:38:40.624Z,98319.84
2022-08-17T18:41:19.558Z,98319.88
2022-08-17T18:44:02.365Z,98323.50
2022-08-17T18:46:35.962Z,98320.97
2022-08-17T18:49:07.837Z,98334.97
2022-08-17T18:51:41.724Z,98334.66
2022-08-17T18:54:23.266Z,98329.34
2022-08-17T18:56:54.377Z,98334.09
2022-08-17T18:59:41.117Z,98337.16
2022-08-17T19:02:22.101Z,98335.75
2022-08-17T19:05:13.708Z,98335.47
2022-08-17T19:07:45.299Z,98342.13
2022-08-17T19:10:28.884Z,98341.53
2022-08-17T19:13:12.670Z,98346.25
2022-08-17T19:15:44.058Z,98347.66
2022-08-17T19:18:21.733Z,98342.59
2022-08-17T19:21:10.068Z,98343.69
2022-08-17T19:24:00.801Z,98342.84
2022-08-17T19:26:54.709Z,98348.66
2022-08-17T19:29:46.735Z,98344.72
2022-08-17T19:32:15.900Z,98349.66
2022-08-17T19:34:44.519Z,98346.03
2022-08-17T19:37:36.430Z,98346.28
2022-08-17T19:40:51.679Z,98348.75
2022-08-17T19:43:48.166Z,98352.88
2022-08-17T19:46:56.284Z,98339.16
2022-08-17T19:49:41.415Z,98348.88
2022-08-17T19:52:27.206Z,98352.72
2022-08-17T19:55:01.206Z,98353.22
2022-08-17T19:57:44.212Z,98357.31
2022-08-17T20:00:14.196Z,98359.22
2022-08-17T20:02:41.263Z,98355.50
2022-08-17T20:05:12.944Z,98342.72
2022-08-17T20:07:56.888Z,98355.16
2022-08-17T20:10:39.434Z,98349.56
2022-08-17T20:13:11.228Z,98348.91
2022-08-17T20:15:40.730Z,98338.25
2022-08-17T20:18:12.592Z,98337.63
2022-08-17T20:20:46.697Z,98331.94
2022-08-17T20:23:23.004Z,98334.41
2022-08-17T20:26:08.428Z,98327.72
2022-08-17T20:28:35.783Z,98322.41
2022-08-17T20:31:03.131Z,98336.28
2022-08-17T20:33:36.822Z,98340.34
2022-08-17T20:36:16.257Z,98345.56
2022-08-17T20:38:49.327Z,98341.34
2022-08-17T20:41:20.845Z,98346.53
2022-08-17T20:43:55.492Z,98347.88
2022-08-17T20:46:38.049Z,98349.41
2022-08-17T20:49:11.028Z,98346.25
2022-08-17T20:52:03.056Z,98347.63
2022-08-17T20:54:51.000Z,98350.59
2022-08-17T20:57:33.548Z,98349.09
2022-08-17T21:00:14.248Z,98341.47
2022-08-17T21:02:46.435Z,98340.25
2022-08-17T21:05:30.073Z,98333.00
2022-08-17T21:08:16.634Z,98331.50
2022-08-17T21:10:45.499Z,98324.22
2022-08-17T21:13:13.875Z,98323.34
2022-08-17T21:15:49.675Z,98321.03
2022-08-17T21:18:29.044Z,98322.63
2022-08-17T21:21:17.721Z,98318.63
2022-08-17T21:24:03.515Z,98329.25
2022-08-17T21:26:33.092Z,98327.34
2022-08-17T21:29:29.659Z,98327.28
2022-08-17T21:32:00.646Z,98327.19
2022-08-17T21:34:33.266Z,98316.84
2022-08-17T21:37:19.202Z,98313.56
2022-08-17T21:39:57.777Z,98308.03
2022-08-17T21:42:28.615Z,98307.06
2022-08-17T21:45:00.040Z,98303.97
2022-08-17T21:47:28.698Z,98311.38
2022-08-17T21:49:56.216Z,98309.00
2022-08-17T21:52:24.164Z,98307.53
2022-08-17T21:54:56.581Z,98308.91
2022-08-17T21:57:27.638Z,98314.34
2022-08-17T21:59:59.993Z,98299.63
2022-08-17T22:02:34.260Z,98306.19
2022-08-17T22:05:04.616Z,98296.91
2022-08-17T22:07:36.124Z,98294.88
2022-08-17T22:10:04.971Z,98301.38
2022-08-17T22:12:31.839Z,98309.28
2022-08-17T22:15:00.660Z,98304.56
2022-08-17T22:17:35.997Z,98303.13
2022-08-17T22:20:19.752Z,98298.81
2022-08-17T22:23:08.491Z,98301.34
2022-08-17T22:25:40.675Z,98307.63
2022-08-17T22:28:11.886Z,98315.03
2022-08-17T22:30:39.408Z,98309.09
2022-08-17T22:33:44.640Z,98317.94
2022-08-17T22:36:22.766Z,98319.63
2022-08-17T22:38:50.491Z,98332.91
2022-08-17T22:41:30.196Z,98338.69
2022-08-17T22:43:57.511Z,98339.16
2022-08-17T22:46:25.613Z,98350.75
2022-08-17T22:48:54.663Z,98353.66
2022-08-17T22:51:25.920Z,98356.06
2022-08-17T22:54:17.815Z,98353.53
2022-08-17T22:57:11.271Z,98362.34
2022-08-17T22:59:44.411Z,98357.56
2022-08-17T23:02:26.107Z,98349.03
2022-08-17T23:05:15.867Z,98346.50
2022-08-17T23:07:44.359Z,98348.03
2022-08-17T23:10:12.024Z,98349.88
2022-08-17T23:12:39.917Z,98344.78
2022-08-17T23:15:30.674Z,98342.25
2022-08-17T23:17:57.811Z,98346.22
2022-08-17T23:20:24.745Z,98345.63
2022-08-17T23:22:53.094Z,98356.09
2022-08-17T23:25:31.330Z,98353.22
2022-08-17T23:28:01.652Z,98349.34
2022-08-17T23:30:31.200Z,98355.75
2022-08-17T23:33:01.210Z,98357.66
2022-08-17T23:35:40.405Z,98354.03
2022-08-17T23:38:11.838Z,98350.06
2022-08-17T23:40:39.391Z,98348.38
2022-08-17T23:43:23.479Z,98350.78
2022-08-17T23:45:57.606Z,98358.97
2022-08-17T23:48:35.346Z,98353.06
2022-08-17T23:51:14.234Z,98355.47
2022-08-17T23:53:46.230Z,98354.84
2022-08-17T23:56:13.600Z,98369.19
2022-08-17T23:58:42.354Z,98358.56
